Time;durP1;ratioP1;P1;durP2;ratioP2;P2;SDS_P1;SDS_P2;PMS_P1;PMS_P2;Temp;Humidity;BMP_temperature;BMP_pressure;BME280_temperature;BME280_humidity;BME280_pressure;Samples;Min_cycle;Max_cycle;Signal;HPM_P1;HPM_P2
2022/11/16 00:02:03;;;;;;;12.63;7.23;;;;;;;4.07;nan;-23930.06;5012833;28;20182;-66
2022/11/16 00:04:29;;;;;;;10.43;6.83;;;;;;;4.25;nan;-23935.22;5012949;28;20180;-66
2022/11/16 00:06:54;;;;;;;18.37;8.57;;;;;;;3.92;nan;-23925.81;5011779;28;20262;-67
2022/11/16 00:09:22;;;;;;;12.73;6.57;;;;;;;4.21;nan;-23934.06;5013220;28;20611;-67
2022/11/16 00:11:54;;;;;;;18.00;6.77;;;;;;;3.73;nan;-23920.53;5013349;28;20171;-65
2022/11/16 00:14:22;;;;;;;11.83;7.23;;;;;;;4.10;nan;-23930.78;5013017;28;20180;-67
2022/11/16 00:16:47;;;;;;;12.17;7.10;;;;;;;3.63;nan;-23917.69;5012221;28;20653;-66
2022/11/16 00:19:13;;;;;;;13.17;7.27;;;;;;;3.65;nan;-23918.25;5012616;28;20675;-66
2022/11/16 00:21:39;;;;;;;17.17;7.33;;;;;;;4.07;nan;-23930.06;5012633;28;20608;-66
2022/11/16 00:24:05;;;;;;;14.50;7.27;;;;;;;3.95;nan;-23926.66;5013066;28;20180;-66
2022/11/16 00:26:30;;;;;;;15.10;7.20;;;;;;;3.00;nan;-23900.00;5012521;28;20220;-66
2022/11/16 00:28:56;;;;;;;16.03;7.40;;;;;;;3.91;nan;-23925.66;5012465;28;20612;-65
2022/11/16 00:31:22;;;;;;;18.90;7.73;;;;;;;3.68;nan;-23918.97;5011979;28;20200;-65
2022/11/16 00:33:48;;;;;;;12.30;6.83;;;;;;;3.51;nan;-23914.25;5011278;28;20180;-65
2022/11/16 00:36:14;;;;;;;11.33;6.60;;;;;;;3.82;nan;-23922.97;5012240;28;20255;-66
2022/11/16 00:38:40;;;;;;;9.97;6.10;;;;;;;2.80;nan;-23894.16;5012288;28;20326;-66
2022/11/16 00:41:07;;;;;;;16.07;8.10;;;;;;;3.48;nan;-23913.41;5011791;28;20184;-66
2022/11/16 00:43:33;;;;;;;14.47;7.07;;;;;;;3.94;nan;-23926.38;5012202;28;20160;-66
2022/11/16 00:45:59;;;;;;;13.57;6.33;;;;;;;3.42;nan;-23911.84;5012474;28;20254;-66
2022/11/16 00:48:24;;;;;;;15.27;7.97;;;;;;;3.66;nan;-23918.41;5012042;28;20298;-65
2022/11/16 00:50:50;;;;;;;13.03;6.63;;;;;;;3.77;nan;-23921.69;5012187;28;20577;-66
2022/11/16 00:53:18;;;;;;;11.43;6.70;;;;;;;3.36;nan;-23910.13;5011973;28;20172;-66
2022/11/16 00:55:45;;;;;;;11.07;6.70;;;;;;;3.70;nan;-23919.69;5012018;28;20251;-66
2022/11/16 00:58:11;;;;;;;11.87;8.27;;;;;;;3.70;nan;-23919.69;5012089;28;20387;-66
2022/11/16 01:00:37;;;;;;;16.57;8.87;;;;;;;3.61;nan;-23916.97;5012495;28;20679;-66
2022/11/16 01:03:02;;;;;;;10.77;7.03;;;;;;;3.42;nan;-23911.84;5012301;28;20283;-66
2022/11/16 01:05:28;;;;;;;13.77;7.23;;;;;;;3.63;nan;-23917.53;5011892;28;20179;-65
2022/11/16 01:07:53;;;;;;;14.43;6.37;;;;;;;3.63;nan;-23917.53;5012232;28;20292;-66
2022/11/16 01:10:21;;;;;;;16.47;6.97;;;;;;;3.62;nan;-23917.25;5012099;28;20176;-65
2022/11/16 01:12:48;;;;;;;12.97;7.50;;;;;;;3.66;nan;-23918.53;5011558;28;20698;-65
2022/11/16 01:15:16;;;;;;;12.87;6.70;;;;;;;3.23;nan;-23906.44;5011739;28;20178;-65
2022/11/16 01:17:42;;;;;;;16.60;7.60;;;;;;;3.33;nan;-23909.28;5012029;28;20179;-67
2022/11/16 01:20:12;;;;;;;13.23;7.97;;;;;;;3.41;nan;-23911.56;5011814;28;20202;-65
2022/11/16 01:22:39;;;;;;;12.20;7.67;;;;;;;3.24;nan;-23906.72;5011622;28;20635;-65
2022/11/16 01:25:06;;;;;;;15.00;7.10;;;;;;;3.23;nan;-23906.44;5011605;28;20323;-66
2022/11/16 01:27:31;;;;;;;10.07;6.60;;;;;;;3.54;nan;-23915.25;5011872;28;20228;-66
2022/11/16 01:29:57;;;;;;;13.77;6.90;;;;;;;3.38;nan;-23910.69;5011736;28;20229;-66
2022/11/16 01:32:22;;;;;;;15.50;7.87;;;;;;;3.41;nan;-23911.41;5011602;28;20182;-66
2022/11/16 01:34:48;;;;;;;11.33;6.83;;;;;;;3.44;nan;-23912.25;5011948;28;20203;-65
2022/11/16 01:37:14;;;;;;;15.87;7.23;;;;;;;3.20;nan;-23905.56;5011817;28;20232;-65
2022/11/16 01:39:40;;;;;;;9.33;6.17;;;;;;;3.32;nan;-23908.84;5011578;28;20203;-66
2022/11/16 01:42:05;;;;;;;10.83;6.80;;;;;;;3.43;nan;-23912.13;5011420;28;20200;-65
2022/11/16 01:44:30;;;;;;;10.97;7.30;;;;;;;3.52;nan;-23914.69;5011519;28;20207;-65
2022/11/16 01:47:01;;;;;;;13.20;6.43;;;;;;;3.42;nan;-23911.69;5011389;28;20549;-65
2022/11/16 01:49:29;;;;;;;10.97;6.27;;;;;;;3.05;nan;-23901.44;5011522;28;20172;-65
2022/11/16 01:52:00;;;;;;;13.67;7.40;;;;;;;3.28;nan;-23907.72;5011728;28;20173;-65
2022/11/16 01:54:27;;;;;;;9.97;6.77;;;;;;;3.26;nan;-23907.13;5014026;28;20573;-66
2022/11/16 01:56:55;;;;;;;11.03;7.03;;;;;;;3.38;nan;-23910.69;5015156;28;20261;-66
2022/11/16 01:59:21;;;;;;;11.37;7.23;;;;;;;3.25;nan;-23906.84;5016006;28;20176;-65
2022/11/16 02:01:47;;;;;;;13.73;6.93;;;;;;;2.76;nan;-23893.00;5015711;28;20225;-67
2022/11/16 02:04:12;;;;;;;16.93;7.90;;;;;;;3.09;nan;-23902.44;5015497;28;20620;-66
2022/11/16 02:06:56;;;;;;;10.67;7.03;;;;;;;3.15;nan;-23904.13;5015542;28;20188;-66
2022/11/16 02:09:52;;;;;;;13.90;7.07;;;;;;;3.18;nan;-23905.00;5015498;28;20493;-65
2022/11/16 02:12:35;;;;;;;16.93;7.47;;;;;;;3.10;nan;-23902.72;5014883;28;20603;-66
2022/11/16 02:15:22;;;;;;;12.93;6.07;;;;;;;2.94;nan;-23898.28;5015173;28;20542;-66
2022/11/16 02:18:01;;;;;;;8.27;6.00;;;;;;;3.00;nan;-23900.00;5015995;28;20577;-66
2022/11/16 02:20:37;;;;;;;9.87;5.77;;;;;;;2.90;nan;-23897.00;5015757;28;20180;-66
2022/11/16 02:23:30;;;;;;;8.47;6.17;;;;;;;2.97;nan;-23899.00;5014915;28;20168;-65
2022/11/16 02:26:18;;;;;;;13.27;6.20;;;;;;;2.92;nan;-23897.72;5014669;28;20307;-67
2022/11/16 02:29:01;;;;;;;16.23;7.37;;;;;;;2.93;nan;-23897.88;5014459;28;20362;-65
2022/11/16 02:31:33;;;;;;;12.97;6.97;;;;;;;2.96;nan;-23898.72;5014937;28;20164;-65
2022/11/16 02:34:00;;;;;;;10.43;6.53;;;;;;;2.56;nan;-23887.44;5015184;28;20237;-66
2022/11/16 02:36:26;;;;;;;8.00;5.40;;;;;;;2.56;nan;-23887.59;5015210;28;20755;-65
2022/11/16 02:39:04;;;;;;;19.27;7.50;;;;;;;2.78;nan;-23893.72;5014842;28;20244;-65
2022/11/16 02:41:35;;;;;;;10.10;6.63;;;;;;;1.90;nan;-23868.88;5015049;28;20191;-67
2022/11/16 02:44:07;;;;;;;13.23;6.23;;;;;;;2.80;nan;-23894.16;5014791;28;20533;-65
2022/11/16 02:46:38;;;;;;;8.37;5.83;;;;;;;2.76;nan;-23893.16;5014785;28;20632;-65
2022/11/16 02:49:09;;;;;;;13.03;6.60;;;;;;;3.06;nan;-23901.56;5014405;28;20200;-65
2022/11/16 02:51:36;;;;;;;10.37;6.20;;;;;;;3.03;nan;-23900.88;5014701;28;20183;-65
2022/11/16 02:54:11;;;;;;;27.23;7.00;;;;;;;3.00;nan;-23900.00;5014271;28;20249;-65
2022/11/16 02:56:56;;;;;;;10.23;6.97;;;;;;;3.00;nan;-23899.88;5014395;28;20241;-65
2022/11/16 02:59:28;;;;;;;9.87;7.57;;;;;;;2.93;nan;-23898.00;5014586;28;20184;-65
2022/11/16 03:02:26;;;;;;;11.83;6.60;;;;;;;3.25;nan;-23906.84;5014768;28;20270;-66
2022/11/16 03:04:59;;;;;;;10.97;6.40;;;;;;;3.17;nan;-23904.56;5013985;28;20254;-66
2022/11/16 03:07:30;;;;;;;12.97;7.53;;;;;;;3.23;nan;-23906.44;5012342;28;20200;-65
2022/11/16 03:09:57;;;;;;;14.57;7.07;;;;;;;3.07;nan;-23902.00;5013751;28;20251;-66
2022/11/16 03:12:26;;;;;;;13.80;6.03;;;;;;;2.78;nan;-23893.72;5013545;28;20264;-66
2022/11/16 03:14:55;;;;;;;12.73;5.77;;;;;;;2.93;nan;-23897.88;5013284;28;20183;-66
2022/11/16 03:17:28;;;;;;;11.17;6.60;;;;;;;3.13;nan;-23903.44;5012038;28;20176;-66
2022/11/16 03:20:05;;;;;;;14.30;7.43;;;;;;;2.80;nan;-23894.16;5013111;28;20587;-65
2022/11/16 03:22:50;;;;;;;15.13;6.53;;;;;;;3.24;nan;-23906.72;5013383;28;20167;-65
2022/11/16 03:25:18;;;;;;;10.57;5.83;;;;;;;3.20;nan;-23905.56;5013305;28;20176;-67
2022/11/16 03:28:05;;;;;;;7.87;5.53;;;;;;;3.15;nan;-23904.13;5013360;28;20232;-66
2022/11/16 03:30:37;;;;;;;13.53;6.73;;;;;;;3.04;nan;-23901.00;5013056;28;20704;-65
2022/11/16 03:33:13;;;;;;;16.87;8.43;;;;;;;3.12;nan;-23903.28;5013101;28;20702;-66
2022/11/16 03:36:00;;;;;;;12.30;7.23;;;;;;;3.18;nan;-23905.00;5012798;28;20179;-65
2022/11/16 03:38:27;;;;;;;9.43;6.43;;;;;;;2.78;nan;-23893.72;5012680;28;20180;-65
2022/11/16 03:40:58;;;;;;;12.27;7.37;;;;;;;2.85;nan;-23895.59;5012288;28;20172;-65
2022/11/16 03:43:26;;;;;;;14.00;5.27;;;;;;;3.19;nan;-23905.28;5013776;28;20211;-65
2022/11/16 03:45:52;;;;;;;12.77;6.20;;;;;;;3.36;nan;-23910.13;5013083;28;20188;-65
2022/11/16 03:48:17;;;;;;;13.53;6.00;;;;;;;3.00;nan;-23899.88;5012990;28;20307;-65
2022/11/16 03:50:43;;;;;;;12.50;6.33;;;;;;;3.22;nan;-23906.00;5012191;28;20707;-65
2022/11/16 03:53:09;;;;;;;11.40;6.10;;;;;;;3.27;nan;-23907.56;5013130;28;20172;-65
2022/11/16 03:55:34;;;;;;;12.90;6.20;;;;;;;2.65;nan;-23890.00;5013006;28;20238;-66
2022/11/16 03:58:00;;;;;;;14.87;7.27;;;;;;;3.19;nan;-23905.13;5013535;28;20176;-66
2022/11/16 04:00:25;;;;;;;11.63;6.50;;;;;;;2.75;nan;-23892.72;5013405;28;20262;-66
2022/11/16 04:02:50;;;;;;;12.07;7.13;;;;;;;2.84;nan;-23895.28;5012843;28;20175;-66
2022/11/16 04:24:44;;;;;;;12.00;5.73;;;;;;;2.83;nan;-23895.00;5017112;28;20194;-65
2022/11/16 04:30:00;;;;;;;13.47;7.27;;;;;;;3.13;nan;-23903.44;5017018;28;20564;-65
2022/11/16 04:37:47;;;;;;;9.13;5.10;;;;;;;3.10;nan;-23902.72;5017411;28;20185;-65
2022/11/16 04:38:13;;;;;;;10.93;6.13;;;;;;;3.22;nan;-23906.00;5017335;28;20548;-65
2022/11/16 04:40:39;;;;;;;9.90;6.93;;;;;;;3.37;nan;-23910.41;5016750;28;20183;-65
2022/11/16 04:43:05;;;;;;;10.57;6.77;;;;;;;3.07;nan;-23901.84;5017129;28;20183;-65
2022/11/16 04:48:17;;;;;;;14.67;6.33;;;;;;;2.76;nan;-23893.16;5016421;28;20713;-66
2022/11/16 04:50:44;;;;;;;13.50;6.97;;;;;;;2.84;nan;-23895.28;5018451;28;20183;-66
2022/11/16 04:53:09;;;;;;;14.10;7.70;;;;;;;3.17;nan;-23904.72;5015496;28;20180;-66
2022/11/16 04:55:35;;;;;;;9.47;5.87;;;;;;;3.09;nan;-23902.56;5017428;28;20179;-66
2022/11/16 04:58:01;;;;;;;8.33;5.03;;;;;;;2.68;nan;-23891.00;5016360;28;20587;-66
2022/11/16 05:00:27;;;;;;;16.90;6.30;;;;;;;2.88;nan;-23896.44;5016335;28;20332;-66
2022/11/16 05:02:53;;;;;;;12.37;6.47;;;;;;;3.07;nan;-23902.00;5016443;28;20190;-66
2022/11/16 05:05:19;;;;;;;14.57;6.30;;;;;;;2.76;nan;-23893.00;5016360;28;20584;-65
2022/11/16 05:07:44;;;;;;;11.60;6.17;;;;;;;2.96;nan;-23898.88;5016225;28;20238;-65
2022/11/16 05:10:10;;;;;;;10.80;4.73;;;;;;;2.31;nan;-23880.47;5016273;28;20268;-65
2022/11/16 05:12:36;;;;;;;10.67;5.37;;;;;;;2.44;nan;-23884.16;5015837;28;20187;-65
2022/11/16 05:15:03;;;;;;;9.60;6.20;;;;;;;2.59;nan;-23888.44;5015993;28;20176;-65
2022/11/16 05:17:28;;;;;;;12.00;6.70;;;;;;;2.94;nan;-23898.28;5015662;28;20211;-66
2022/11/16 05:22:58;;;;;;;8.53;6.67;;;;;;;2.54;nan;-23887.03;4995130;28;20623;-66
2022/11/16 05:25:24;;;;;;;6.37;5.30;;;;;;;2.56;nan;-23887.59;4995225;28;20212;-66
2022/11/16 05:27:49;;;;;;;12.43;5.23;;;;;;;2.50;nan;-23885.88;5007865;28;20231;-66
2022/11/16 05:30:15;;;;;;;9.53;5.80;;;;;;;2.43;nan;-23883.88;5019908;28;20258;-66
2022/11/16 05:32:41;;;;;;;8.10;5.97;;;;;;;2.77;nan;-23893.44;5016087;28;20250;-66
2022/11/16 05:35:06;;;;;;;11.37;6.00;;;;;;;2.83;nan;-23895.00;5020749;28;20275;-65
2022/11/16 05:37:32;;;;;;;9.37;5.77;;;;;;;2.92;nan;-23897.56;5025273;28;20666;-68
2022/11/16 05:39:57;;;;;;;14.30;6.60;;;;;;;2.97;nan;-23899.16;5030869;28;20739;-65
2022/11/16 05:42:23;;;;;;;10.00;5.83;;;;;;;2.51;nan;-23886.16;5012953;28;20206;-67
2022/11/16 05:44:48;;;;;;;13.43;5.73;;;;;;;2.78;nan;-23893.72;5020200;28;20187;-65
2022/11/16 05:47:14;;;;;;;10.07;4.97;;;;;;;2.77;nan;-23893.44;5030943;28;20239;-67
2022/11/16 05:49:39;;;;;;;7.63;5.40;;;;;;;3.19;nan;-23905.13;5031016;28;20207;-65
2022/11/16 05:52:04;;;;;;;15.27;5.53;;;;;;;2.55;nan;-23887.31;5030871;28;20540;-66
2022/11/16 05:54:30;;;;;;;11.77;6.70;;;;;;;2.81;nan;-23894.59;5030911;28;20163;-65
2022/11/16 05:56:55;;;;;;;6.00;4.17;;;;;;;2.89;nan;-23896.72;5031040;28;20619;-65
2022/11/16 05:59:22;;;;;;;7.70;4.47;;;;;;;3.11;nan;-23903.00;5020570;28;20184;-66
2022/11/16 06:01:48;;;;;;;7.87;5.70;;;;;;;2.89;nan;-23896.88;5020643;28;20226;-66
2022/11/16 06:04:14;;;;;;;10.77;5.90;;;;;;;3.35;nan;-23909.69;5022601;28;20176;-65
2022/11/16 06:06:39;;;;;;;15.00;7.07;;;;;;;3.13;nan;-23903.56;5029131;28;20666;-68
2022/11/16 06:09:05;;;;;;;9.70;6.33;;;;;;;3.42;nan;-23911.84;5030197;28;20714;-65
2022/11/16 06:11:32;;;;;;;13.67;5.83;;;;;;;3.08;nan;-23902.28;5029831;28;20649;-65
2022/11/16 06:13:57;;;;;;;11.43;6.23;;;;;;;3.31;nan;-23908.56;5026800;28;20195;-67
2022/11/16 06:16:23;;;;;;;10.40;5.43;;;;;;;3.43;nan;-23912.13;5018274;28;20195;-66
2022/11/16 06:18:48;;;;;;;8.70;5.60;;;;;;;3.42;nan;-23911.84;5020270;28;20279;-67
2022/11/16 06:21:16;;;;;;;10.97;7.17;;;;;;;3.79;nan;-23922.09;5010412;28;20165;-67
2022/11/16 06:23:41;;;;;;;16.03;7.70;;;;;;;3.44;nan;-23912.25;5010136;28;20296;-68
2022/11/16 06:26:07;;;;;;;14.80;7.67;;;;;;;3.56;nan;-23915.69;5010600;28;20667;-66
2022/11/16 06:28:33;;;;;;;9.37;5.93;;;;;;;;;;5008162;28;20191;-66
2022/11/16 06:31:00;;;;;;;14.70;6.50;;;;;;;3.93;nan;-23926.22;5010634;28;20234;-65
2022/11/16 06:33:34;;;;;;;19.03;7.80;;;;;;;3.94;nan;-23926.38;5019391;28;20193;-67
2022/11/16 06:36:00;;;;;;;16.20;7.87;;;;;;;4.00;nan;-23928.22;5030493;28;20253;-67
2022/11/16 06:38:26;;;;;;;12.20;7.37;;;;;;;3.48;nan;-23913.56;5030544;28;20615;-67
2022/11/16 06:40:53;;;;;;;14.07;8.50;;;;;;;4.12;nan;-23931.50;5033155;28;20633;-67
2022/11/16 06:43:20;;;;;;;13.13;7.63;;;;;;;3.48;nan;-23913.56;5033085;28;20219;-67
2022/11/16 06:45:52;;;;;;;10.73;6.37;;;;;;;4.30;nan;-23936.63;5033914;28;20175;-67
2022/11/16 06:48:19;;;;;;;15.00;6.00;;;;;;;3.06;nan;-23901.72;5033460;28;20317;-67
2022/11/16 06:50:47;;;;;;;10.87;5.03;;;;;;;3.78;nan;-23921.97;5033599;28;20255;-67
2022/11/16 06:53:12;;;;;;;14.67;6.57;;;;;;;4.42;nan;-23940.03;5033607;28;20175;-68
2022/11/16 06:55:38;;;;;;;14.50;8.27;;;;;;;4.30;nan;-23936.50;5033232;28;20595;-67
2022/11/16 06:58:03;;;;;;;10.77;6.53;;;;;;;4.56;nan;-23943.75;5033512;28;20254;-67
2022/11/16 07:00:29;;;;;;;13.63;6.90;;;;;;;4.77;nan;-23949.72;5033448;28;20271;-68
2022/11/16 07:02:54;;;;;;;13.60;6.17;;;;;;;4.63;nan;-23945.88;5029882;28;20194;-68
2022/11/16 07:05:20;;;;;;;13.10;6.37;;;;;;;5.24;nan;-23963.09;5024690;28;20183;-68
2022/11/16 07:07:46;;;;;;;10.00;7.07;;;;;;;5.27;nan;-23963.94;5020051;28;20223;-68
2022/11/16 07:10:11;;;;;;;10.30;6.37;;;;;;;5.30;nan;-23964.66;5013118;28;20636;-68
2022/11/16 07:12:37;;;;;;;10.10;5.67;;;;;;;5.07;nan;-23958.25;5031532;28;20195;-67
2022/11/16 07:15:03;;;;;;;13.13;7.83;;;;;;;5.64;nan;-23974.19;5033369;28;20182;-67
2022/11/16 07:17:28;;;;;;;11.30;7.57;;;;;;;5.32;nan;-23965.22;5033314;28;20176;-67
2022/11/16 07:19:54;;;;;;;12.00;6.80;;;;;;;5.90;nan;-23981.44;5033131;28;20313;-67
2022/11/16 07:22:19;;;;;;;15.70;8.00;;;;;;;6.09;nan;-23986.84;5033584;28;20176;-68
2022/11/16 07:24:44;;;;;;;12.73;7.13;;;;;;;6.19;nan;-23989.81;5033304;28;20254;-68
2022/11/16 07:27:10;;;;;;;12.30;7.30;;;;;;;6.08;nan;-23986.69;5032777;28;20223;-68
2022/11/16 07:29:35;;;;;;;18.43;7.90;;;;;;;6.13;nan;-23988.13;5033060;28;20624;-67
2022/11/16 07:32:01;;;;;;;18.00;8.07;;;;;;;6.57;nan;-24000.47;5033296;28;20183;-67
2022/11/16 07:34:26;;;;;;;14.50;7.57;;;;;;;6.30;nan;-23992.66;5033193;28;20187;-68
2022/11/16 07:36:51;;;;;;;13.53;8.13;;;;;;;5.59;nan;-23972.75;5033683;28;20520;-68
2022/11/16 07:39:17;;;;;;;16.57;8.67;;;;;;;6.94;nan;-24010.81;5032153;28;20179;-68
2022/11/16 07:41:43;;;;;;;14.67;7.70;;;;;;;6.50;nan;-23998.47;5024862;28;20184;-68
2022/11/16 07:44:08;;;;;;;14.87;8.13;;;;;;;6.66;nan;-24003.00;5028877;28;20182;-67
2022/11/16 07:46:34;;;;;;;21.43;7.73;;;;;;;6.90;nan;-24009.53;5016791;28;20184;-67
2022/11/16 07:48:59;;;;;;;14.73;8.63;;;;;;;6.75;nan;-24005.28;5015409;28;20579;-68
2022/11/16 07:51:25;;;;;;;21.73;9.00;;;;;;;6.98;nan;-24011.81;5021675;28;20180;-66
2022/11/16 07:53:57;;;;;;;14.07;7.90;;;;;;;7.14;nan;-24016.34;5022558;28;20179;-67
2022/11/16 07:56:23;;;;;;;14.60;8.63;;;;;;;7.25;nan;-24019.47;5032356;28;20662;-68
2022/11/16 07:58:49;;;;;;;14.90;8.17;;;;;;;6.64;nan;-24002.31;5016339;28;20183;-68
2022/11/16 08:01:16;;;;;;;24.07;9.47;;;;;;;7.28;nan;-24020.19;5012482;28;20650;-67
2022/11/16 08:03:43;;;;;;;21.27;9.57;;;;;;;7.48;nan;-24026.00;5012314;28;20176;-68
2022/11/16 08:06:24;;;;;;;19.13;8.87;;;;;;;7.76;nan;-24033.78;5012038;28;20542;-67
2022/11/16 08:08:50;;;;;;;18.97;9.93;;;;;;;7.61;nan;-24029.53;5017463;28;20226;-68
2022/11/16 08:11:15;;;;;;;14.70;8.17;;;;;;;7.74;nan;-24033.06;5022845;28;20168;-67
2022/11/16 08:13:41;;;;;;;20.07;9.67;;;;;;;8.00;nan;-24040.59;5021087;28;20274;-70
2022/11/16 08:16:18;;;;;;;13.85;8.88;;;;;;;8.00;nan;-24040.44;5021017;28;20186;-67
2022/11/16 08:18:44;;;;;;;20.20;9.33;;;;;;;8.27;nan;-24048.09;5021849;28;20215;-67
2022/11/16 08:21:11;;;;;;;28.00;8.73;;;;;;;8.32;nan;-24049.38;5026260;28;20215;-68
2022/11/16 08:23:39;;;;;;;17.17;8.27;;;;;;;8.37;nan;-24050.78;5032009;28;20171;-69
2022/11/16 08:26:15;;;;;;;21.10;10.17;;;;;;;8.41;nan;-24052.06;5032096;28;20219;-67
2022/11/16 08:28:42;;;;;;;19.57;8.97;;;;;;;8.55;nan;-24055.88;5032042;28;20772;-67
2022/11/16 08:31:11;;;;;;;18.63;8.97;;;;;;;8.61;nan;-24057.44;5032065;28;20179;-69
2022/11/16 08:33:37;;;;;;;19.97;8.40;;;;;;;8.81;nan;-24063.09;5031792;28;20172;-68
2022/11/16 08:36:04;;;;;;;20.35;9.52;;;;;;;8.56;nan;-24056.03;5031746;28;20634;-67
2022/11/16 08:38:29;;;;;;;21.83;9.63;;;;;;;8.87;nan;-24064.78;5031815;28;20183;-67
2022/11/16 08:40:55;;;;;;;26.52;9.63;;;;;;;9.27;nan;-24076.09;5031953;28;20160;-68
2022/11/16 08:43:20;;;;;;;15.98;8.93;;;;;;;9.37;nan;-24078.66;5031509;28;20690;-67
2022/11/16 08:45:47;;;;;;;21.13;9.50;;;;;;;9.39;nan;-24079.34;5032024;28;20172;-68
2022/11/16 08:48:13;;;;;;;17.00;9.45;;;;;;;9.31;nan;-24077.09;5031060;28;20588;-68
2022/11/16 08:50:38;;;;;;;23.42;10.23;;;;;;;9.09;nan;-24071.03;5030292;28;20182;-69
2022/11/16 08:53:03;;;;;;;18.23;8.23;;;;;;;9.70;nan;-24087.97;5031079;28;20183;-67
2022/11/16 08:55:29;;;;;;;18.75;8.30;;;;;;;9.76;nan;-24089.66;5031580;28;20262;-67
2022/11/16 08:57:54;;;;;;;16.55;8.98;;;;;;;10.06;nan;-24098.16;5031741;28;20211;-68
2022/11/16 09:00:20;;;;;;;20.98;10.02;;;;;;;9.91;nan;-24093.78;5031151;28;20705;-68
2022/11/16 09:02:45;;;;;;;17.67;8.43;;;;;;;10.48;nan;-24109.88;5030355;28;20205;-68
2022/11/16 09:05:11;;;;;;;19.73;8.88;;;;;;;10.42;nan;-24108.16;5031264;28;20266;-68
2022/11/16 09:07:38;;;;;;;16.40;8.85;;;;;;;10.58;nan;-24112.56;5030008;28;20273;-68
2022/11/16 09:10:04;;;;;;;16.20;7.82;;;;;;;10.30;nan;-24104.78;5031275;28;20602;-69
2022/11/16 09:12:29;;;;;;;20.90;9.10;;;;;;;10.29;nan;-24104.50;5031415;28;20700;-68
2022/11/16 09:14:55;;;;;;;23.38;10.32;;;;;;;10.25;nan;-24103.38;5031615;28;20171;-67
2022/11/16 09:17:20;;;;;;;21.73;9.13;;;;;;;10.63;nan;-24114.09;5030707;28;20179;-67
2022/11/16 09:19:45;;;;;;;18.95;9.05;;;;;;;10.87;nan;-24120.72;5030975;28;20175;-67
2022/11/16 09:22:11;;;;;;;19.92;8.35;;;;;;;11.20;nan;-24129.88;5031529;28;20662;-68
2022/11/16 09:24:36;;;;;;;17.00;8.43;;;;;;;11.46;nan;-24137.22;5031270;28;20167;-67
2022/11/16 09:27:01;;;;;;;17.73;10.68;;;;;;;11.46;nan;-24137.09;5029175;28;20595;-66
2022/11/16 09:29:27;;;;;;;20.05;9.07;;;;;;;11.32;nan;-24133.13;5030587;28;20167;-67
2022/11/16 09:31:53;;;;;;;20.60;9.93;;;;;;;11.81;nan;-24146.81;5030581;28;20202;-67
2022/11/16 09:34:19;;;;;;;21.77;8.80;;;;;;;11.76;nan;-24145.41;5031153;28;20221;-68
2022/11/16 09:36:44;;;;;;;21.02;9.40;;;;;;;12.20;nan;-24157.78;5031007;28;20262;-68
2022/11/16 09:39:13;;;;;;;18.45;8.73;;;;;;;11.98;nan;-24151.44;5030802;28;20622;-67
2022/11/16 09:42:00;;;;;;;17.48;8.18;;;;;;;12.39;nan;-24163.13;5026612;28;20233;-67
2022/11/16 09:45:00;;;;;;;16.88;7.63;;;;;;;12.62;nan;-24169.47;5009288;28;20182;-68
2022/11/16 09:47:34;;;;;;;21.02;8.30;;;;;;;12.68;nan;-24171.00;5011154;28;20227;-68
2022/11/16 09:50:03;;;;;;;14.93;7.93;;;;;;;13.00;nan;-24180.00;5011118;28;20160;-67
2022/11/16 09:52:37;;;;;;;16.48;7.45;;;;;;;13.14;nan;-24183.81;5015035;28;20182;-67
2022/11/16 09:55:23;;;;;;;13.85;7.03;;;;;;;13.01;nan;-24180.16;5030858;28;20171;-67
2022/11/16 09:57:51;;;;;;;12.32;6.70;;;;;;;12.62;nan;-24169.31;5030546;28;20179;-68
2022/11/16 10:00:22;;;;;;;17.23;7.15;;;;;;;12.83;nan;-24175.22;5030534;28;20552;-68
2022/11/16 10:02:52;;;;;;;17.13;7.57;;;;;;;13.32;nan;-24188.88;5030906;28;20179;-66
2022/11/16 10:05:28;;;;;;;12.90;7.03;;;;;;;13.54;nan;-24194.91;5030760;28;20638;-66
2022/11/16 10:08:28;;;;;;;15.60;7.32;;;;;;;13.80;nan;-24202.06;5030924;28;20693;-67
2022/11/16 10:11:00;;;;;;;14.73;6.18;;;;;;;13.91;nan;-24205.28;5030730;28;20179;-68
2022/11/16 10:13:43;;;;;;;13.05;7.13;;;;;;;14.07;nan;-24209.78;5030505;28;20629;-67
2022/11/16 10:16:17;;;;;;;17.85;8.40;;;;;;;13.71;nan;-24199.69;5034158;28;20266;-67
2022/11/16 10:18:51;;;;;;;12.52;6.95;;;;;;;14.25;nan;-24214.69;5034238;28;20286;-67
2022/11/16 10:21:27;;;;;;;15.18;6.65;;;;;;;13.95;nan;-24206.41;5034234;28;20646;-68
2022/11/16 10:24:07;;;;;;;10.95;5.60;;;;;;;14.37;nan;-24218.06;5024005;28;20190;-68
2022/11/16 10:26:50;;;;;;;19.92;7.50;;;;;;;14.44;nan;-24220.03;5033868;28;20219;-67
2022/11/16 10:29:45;;;;;;;15.27;7.25;;;;;;;14.63;nan;-24225.06;5034249;28;20306;-67
2022/11/16 10:32:27;;;;;;;14.05;7.00;;;;;;;14.66;nan;-24226.06;5034468;28;20183;-68
2022/11/16 10:34:55;;;;;;;15.02;7.20;;;;;;;14.81;nan;-24230.25;5033990;28;20163;-66
2022/11/16 10:37:22;;;;;;;11.93;6.38;;;;;;;14.88;nan;-24232.09;5031251;28;20659;-68
2022/11/16 10:39:50;;;;;;;11.48;5.55;;;;;;;14.85;nan;-24231.38;5022374;28;20592;-67
2022/11/16 10:42:22;;;;;;;16.60;6.85;;;;;;;15.18;nan;-24240.50;5023970;28;20183;-67
2022/11/16 10:45:16;;;;;;;14.07;6.32;;;;;;;15.38;nan;-24245.94;5033967;28;20258;-67
2022/11/16 10:47:49;;;;;;;18.95;6.28;;;;;;;15.27;nan;-24243.00;5014009;28;20601;-68
2022/11/16 10:50:26;;;;;;;15.32;6.53;;;;;;;15.32;nan;-24244.28;5013603;28;20330;-66
2022/11/16 10:52:51;;;;;;;10.23;6.32;;;;;;;15.07;nan;-24237.41;5013811;28;20168;-67
2022/11/16 10:55:20;;;;;;;13.02;6.80;;;;;;;15.21;nan;-24241.19;5013614;28;20187;-68
2022/11/16 10:58:03;;;;;;;10.23;5.90;;;;;;;15.24;nan;-24242.03;5013459;28;20538;-68
2022/11/16 11:00:41;;;;;;;13.23;6.35;;;;;;;15.37;nan;-24245.81;5013844;28;20343;-67
2022/11/16 11:03:09;;;;;;;10.18;5.55;;;;;;;15.64;nan;-24253.22;5013955;28;20161;-67
2022/11/16 11:05:35;;;;;;;10.52;5.93;;;;;;;15.69;nan;-24254.50;5013831;28;20659;-67
2022/11/16 11:08:09;;;;;;;15.13;6.28;;;;;;;15.58;nan;-24251.41;5013437;28;20228;-67
2022/11/16 11:10:36;;;;;;;11.40;5.75;;;;;;;16.48;nan;-24276.31;5013977;28;20255;-67
2022/11/16 11:13:10;;;;;;;10.88;5.78;;;;;;;16.24;nan;-24269.75;5013806;28;20192;-67
2022/11/16 11:15:40;;;;;;;10.98;5.88;;;;;;;16.43;nan;-24275.06;5013751;28;20183;-66
2022/11/16 11:18:12;;;;;;;13.85;6.22;;;;;;;16.93;nan;-24288.75;5013724;28;20172;-66
2022/11/16 11:20:40;;;;;;;11.68;5.45;;;;;;;16.17;nan;-24267.94;5013611;28;20195;-68
2022/11/16 11:23:14;;;;;;;12.90;6.47;;;;;;;17.15;nan;-24294.91;5013064;28;20184;-67
2022/11/16 11:25:58;;;;;;;13.32;6.05;;;;;;;17.13;nan;-24294.47;5044094;28;20270;-66
2022/11/16 11:28:30;;;;;;;14.73;6.25;;;;;;;17.04;nan;-24291.97;5013042;28;20194;-67
2022/11/16 11:31:03;;;;;;;15.57;7.32;;;;;;;16.50;nan;-24277.00;5013195;28;20645;-67
2022/11/16 11:33:34;;;;;;;14.95;7.35;;;;;;;16.52;nan;-24277.56;5013025;28;20194;-67
2022/11/16 11:36:18;;;;;;;17.23;7.85;;;;;;;16.10;nan;-24265.97;5013017;28;20575;-67
2022/11/16 11:39:25;;;;;;;17.13;8.93;;;;;;;16.34;nan;-24272.69;5012703;28;20180;-66
2022/11/16 11:42:11;;;;;;;15.63;7.85;;;;;;;16.26;nan;-24270.31;5012584;28;20176;-67
2022/11/16 11:45:00;;;;;;;15.25;7.00;;;;;;;16.29;nan;-24271.13;5012801;28;20156;-67
2022/11/16 11:47:49;;;;;;;19.42;7.40;;;;;;;16.08;nan;-24265.28;5008228;28;20224;-66
2022/11/16 11:50:18;;;;;;;18.17;8.57;;;;;;;16.29;nan;-24271.13;5012571;28;20176;-66
2022/11/16 11:53:11;;;;;;;13.32;7.57;;;;;;;16.44;nan;-24275.34;5012682;28;20261;-66
2022/11/16 11:55:38;;;;;;;16.25;7.72;;;;;;;16.14;nan;-24266.94;5012452;28;20176;-66
2022/11/16 11:58:09;;;;;;;19.75;8.38;;;;;;;16.34;nan;-24272.69;5012151;28;20569;-66
2022/11/16 12:01:12;;;;;;;13.80;7.38;;;;;;;15.90;nan;-24260.50;5012739;28;20164;-67
2022/11/16 12:03:54;;;;;;;18.10;8.20;;;;;;;15.84;nan;-24258.84;5013100;28;20262;-66
2022/11/16 12:06:34;;;;;;;18.83;7.95;;;;;;;15.75;nan;-24256.31;5012523;28;20218;-66
2022/11/16 12:09:22;;;;;;;15.07;7.82;;;;;;;15.81;nan;-24258.00;5012775;28;20203;-66
2022/11/16 12:11:54;;;;;;;17.17;7.75;;;;;;;16.32;nan;-24271.97;5001280;28;20199;-66
2022/11/16 12:14:38;;;;;;;15.25;6.90;;;;;;;16.51;nan;-24277.28;5012342;28;20164;-66
2022/11/16 12:17:29;;;;;;;14.63;6.68;;;;;;;16.55;nan;-24278.28;5012480;28;20164;-66
2022/11/16 12:20:14;;;;;;;16.13;7.05;;;;;;;16.75;nan;-24283.88;5012537;28;20172;-66
2022/11/16 12:22:53;;;;;;;17.00;7.15;;;;;;;16.89;nan;-24287.63;5011984;28;20179;-65
2022/11/16 12:25:42;;;;;;;17.27;7.28;;;;;;;16.91;nan;-24288.34;5012288;28;20164;-67
2022/11/16 12:28:16;;;;;;;15.23;7.47;;;;;;;16.66;nan;-24281.50;5011922;28;20206;-67